createdAt,value
2019-02-16T00:00:15.125Z,68.04
2019-02-16T00:02:43.372Z,68.04
2019-02-16T00:05:11.690Z,68.11
2019-02-16T00:07:40.017Z,68.48
2019-02-16T00:10:08.382Z,67.13
2019-02-16T00:12:36.692Z,66.62
2019-02-16T00:15:05.257Z,67.53
2019-02-16T00:17:33.580Z,66.98
2019-02-16T00:20:01.876Z,66.97
2019-02-16T00:22:30.118Z,67.78
2019-02-16T00:24:58.352Z,67.72
2019-02-16T00:27:26.629Z,68.04
2019-02-16T00:29:54.936Z,63.84
2019-02-16T00:32:23.315Z,67.60
2019-02-16T00:34:51.670Z,66.86
2019-02-16T00:37:19.935Z,68.25
2019-02-16T00:39:48.307Z,66.56
2019-02-16T00:42:16.785Z,69.10
2019-02-16T00:44:45.158Z,68.85
2019-02-16T00:47:13.639Z,65.11
2019-02-16T00:49:41.863Z,68.93
2019-02-16T00:52:10.063Z,69.66
2019-02-16T00:54:38.278Z,69.25
2019-02-16T00:57:06.464Z,68.58
2019-02-16T00:59:34.826Z,67.61
2019-02-16T01:04:39.221Z,70.16
2019-02-16T01:07:08.310Z,70.66
2019-02-16T01:09:36.632Z,66.89
2019-02-16T01:12:04.884Z,65.72
2019-02-16T01:14:33.182Z,69.38
2019-02-16T01:17:01.482Z,69.29
2019-02-16T01:19:29.756Z,68.03
2019-02-16T01:21:58.059Z,66.84
2019-02-16T01:24:26.325Z,69.98
2019-02-16T01:26:54.847Z,70.94
2019-02-16T01:29:23.122Z,69.75
2019-02-16T01:31:51.386Z,70.13
2019-02-16T01:34:19.708Z,70.21
2019-02-16T01:36:48.065Z,70.08
2019-02-16T01:39:16.323Z,67.77
2019-02-16T01:41:44.625Z,67.88
2019-02-16T01:44:12.918Z,70.62
2019-02-16T01:46:41.120Z,70.54
2019-02-16T01:49:09.304Z,70.55
2019-02-16T01:51:37.509Z,70.16
2019-02-16T01:54:05.775Z,70.05
2019-02-16T01:56:34.023Z,70.47
2019-02-16T01:59:02.226Z,70.65
2019-02-16T02:01:30.522Z,71.06
2019-02-16T02:03:59.128Z,70.57
2019-02-16T02:06:27.457Z,70.96
2019-02-16T02:08:55.900Z,65.92
2019-02-16T02:11:24.289Z,70.97
2019-02-16T02:13:52.705Z,71.01
2019-02-16T02:16:21.007Z,71.09
2019-02-16T02:18:49.264Z,71.64
2019-02-16T02:21:17.559Z,71.66
2019-02-16T02:23:45.903Z,71.83
2019-02-16T02:26:14.214Z,71.76
2019-02-16T02:28:42.642Z,69.20
2019-02-16T02:31:11.005Z,71.91
2019-02-16T02:33:39.299Z,72.20
2019-02-16T02:36:07.540Z,71.99
2019-02-16T02:38:35.967Z,72.12
2019-02-16T02:41:04.258Z,72.30
2019-02-16T02:43:32.560Z,71.75
2019-02-16T02:46:00.766Z,71.46
2019-02-16T02:48:29.006Z,65.63
2019-02-16T02:50:57.291Z,71.55
2019-02-16T02:53:31.258Z,72.29
2019-02-16T02:55:55.601Z,72.20
2019-02-16T02:58:23.834Z,72.99
2019-02-16T03:00:52.182Z,72.87
2019-02-16T03:03:20.509Z,72.68
2019-02-16T03:05:48.768Z,72.21
2019-02-16T03:08:17.057Z,72.10
2019-02-16T03:10:45.289Z,72.01
2019-02-16T03:13:13.592Z,72.08
2019-02-16T03:15:41.900Z,71.73
2019-02-16T03:18:10.129Z,72.08
2019-02-16T03:20:38.425Z,72.39
2019-02-16T03:23:25.695Z,71.72
2019-02-16T03:26:17.976Z,71.89
2019-02-16T03:29:12.448Z,72.36
2019-02-16T03:32:12.012Z,72.67
2019-02-16T03:35:08.262Z,72.51
2019-02-16T03:38:00.179Z,71.22
2019-02-16T03:40:28.578Z,65.28
2019-02-16T03:42:56.816Z,72.40
2019-02-16T03:45:25.110Z,72.36
2019-02-16T03:47:53.490Z,72.80
2019-02-16T03:50:21.779Z,72.61
2019-02-16T03:52:50.053Z,73.13
2019-02-16T03:55:18.330Z,73.42
2019-02-16T03:57:46.766Z,73.73
2019-02-16T04:00:15.088Z,73.80
2019-02-16T04:02:43.527Z,74.63
2019-02-16T04:05:11.838Z,68.00
2019-02-16T04:07:40.141Z,74.32
2019-02-16T04:10:08.595Z,74.45
2019-02-16T04:12:36.908Z,73.97
2019-02-16T04:15:05.409Z,75.13
2019-02-16T04:17:33.643Z,75.19
2019-02-16T04:20:02.027Z,72.00
2019-02-16T04:22:30.561Z,74.94
2019-02-16T04:24:58.883Z,70.47
2019-02-16T04:27:27.185Z,67.30
2019-02-16T04:30:03.391Z,72.54
2019-02-16T04:32:31.720Z,74.26
2019-02-16T04:35:00.508Z,74.57
2019-02-16T04:37:28.646Z,66.76
2019-02-16T04:39:56.924Z,67.26
2019-02-16T04:42:25.182Z,74.33
2019-02-16T04:44:53.563Z,74.04
2019-02-16T04:47:21.790Z,74.01
2019-02-16T04:49:50.125Z,73.95
2019-02-16T04:52:18.315Z,73.96
2019-02-16T04:54:46.773Z,74.00
2019-02-16T04:57:15.156Z,74.02
2019-02-16T04:59:43.337Z,72.19
2019-02-16T05:02:11.574Z,71.45
2019-02-16T05:04:39.823Z,72.07
2019-02-16T05:07:08.388Z,70.32
2019-02-16T05:09:36.713Z,69.90
2019-02-16T05:12:04.987Z,75.14
2019-02-16T05:14:33.284Z,74.48
2019-02-16T05:17:01.556Z,74.70
2019-02-16T05:19:29.831Z,73.64
2019-02-16T05:21:58.048Z,74.46
2019-02-16T05:24:26.247Z,74.63
2019-02-16T05:26:54.436Z,74.85
2019-02-16T05:29:22.763Z,71.84
2019-02-16T05:31:50.967Z,73.90
2019-02-16T05:34:19.248Z,74.94
2019-02-16T05:36:47.604Z,75.53
2019-02-16T05:39:15.945Z,70.74
2019-02-16T05:41:44.401Z,70.25
2019-02-16T05:44:12.602Z,75.89
2019-02-16T05:46:41.080Z,75.26
2019-02-16T05:49:09.359Z,75.90
2019-02-16T05:51:37.590Z,76.47
2019-02-16T05:54:05.888Z,76.84
2019-02-16T05:56:34.251Z,75.72
2019-02-16T05:59:02.608Z,75.76
2019-02-16T06:01:30.873Z,76.38
2019-02-16T06:03:59.144Z,75.56
2019-02-16T06:06:27.403Z,74.80
2019-02-16T06:08:55.651Z,71.48
2019-02-16T06:11:23.909Z,67.26
2019-02-16T06:13:52.234Z,76.67
2019-02-16T06:16:20.577Z,76.02
2019-02-16T06:18:48.919Z,75.65
2019-02-16T06:21:17.227Z,75.56
2019-02-16T06:23:45.443Z,73.23
2019-02-16T06:26:13.620Z,75.45
2019-02-16T06:28:41.849Z,76.75
2019-02-16T06:31:10.164Z,76.50
2019-02-16T06:33:38.440Z,76.36
2019-02-16T06:36:25.739Z,68.49
2019-02-16T06:38:54.016Z,75.62
2019-02-16T06:41:22.315Z,75.07
2019-02-16T06:43:50.737Z,67.75
2019-02-16T06:46:19.070Z,75.66
2019-02-16T06:48:47.437Z,73.98
2019-02-16T06:51:15.731Z,75.54
2019-02-16T06:53:44.213Z,75.40
2019-02-16T06:56:31.374Z,73.66
2019-02-16T06:58:59.956Z,76.00
2019-02-16T07:01:28.253Z,76.16
2019-02-16T07:03:56.494Z,75.53
2019-02-16T07:06:24.757Z,76.07
2019-02-16T07:08:53.208Z,75.79
2019-02-16T07:11:21.506Z,76.15
2019-02-16T07:13:49.728Z,75.22
2019-02-16T07:16:42.741Z,69.86
2019-02-16T07:19:21.326Z,74.92
2019-02-16T07:21:49.581Z,74.53
2019-02-16T07:24:17.897Z,74.12
2019-02-16T07:26:46.129Z,71.77
2019-02-16T07:29:14.507Z,71.85
2019-02-16T07:31:43.081Z,72.11
2019-02-16T07:34:11.325Z,71.85
2019-02-16T07:36:39.563Z,71.80
2019-02-16T07:39:08.914Z,71.25
2019-02-16T07:41:37.118Z,70.75
2019-02-16T07:47:15.856Z,69.70
2019-02-16T07:49:59.172Z,68.97
2019-02-16T07:52:46.340Z,68.47
2019-02-16T07:55:27.125Z,69.04
2019-02-16T07:58:13.364Z,67.67
2019-02-16T08:01:09.570Z,68.08
2019-02-16T08:03:44.602Z,67.44
2019-02-16T08:06:31.857Z,67.44
2019-02-16T08:09:17.188Z,66.31
2019-02-16T08:12:03.196Z,65.37
2019-02-16T08:15:00.322Z,64.88
2019-02-16T08:17:50.565Z,64.66
2019-02-16T08:20:37.783Z,64.29
2019-02-16T08:23:27.749Z,62.27
2019-02-16T08:26:15.145Z,57.56
2019-02-16T08:28:54.851Z,57.03
2019-02-16T08:31:28.814Z,55.24
2019-02-16T08:34:16.555Z,54.94
2019-02-16T08:37:09.993Z,52.14
2019-02-16T08:39:53.308Z,51.93
2019-02-16T08:42:40.929Z,51.33
2019-02-16T08:45:37.513Z,50.11
2019-02-16T08:48:15.989Z,51.06
2019-02-16T08:50:52.272Z,52.07
2019-02-16T08:53:38.270Z,50.16
2019-02-16T08:56:30.473Z,53.58
2019-02-16T08:59:26.659Z,57.93
2019-02-16T09:02:13.880Z,52.64
2019-02-16T09:04:52.267Z,55.43
2019-02-16T09:07:39.390Z,52.44
2019-02-16T09:10:27.240Z,56.80
2019-02-16T09:13:14.535Z,51.19
2019-02-16T09:16:01.860Z,51.10
2019-02-16T09:18:45.426Z,57.23
2019-02-16T09:21:32.551Z,57.28
2019-02-16T09:24:22.872Z,50.67
2019-02-16T09:27:15.283Z,50.13
2019-02-16T09:29:51.182Z,52.90
2019-02-16T09:32:33.454Z,46.20
2019-02-16T09:35:12.222Z,55.09
2019-02-16T09:37:51.912Z,46.21
2019-02-16T09:40:39.126Z,54.02
2019-02-16T09:43:35.675Z,48.02
2019-02-16T09:46:35.397Z,53.87
2019-02-16T09:49:12.638Z,44.98
2019-02-16T09:51:59.799Z,43.98
2019-02-16T09:54:45.608Z,45.88
2019-02-16T09:57:32.817Z,51.64
2019-02-16T10:00:11.590Z,46.78
2019-02-16T10:03:57.569Z,41.73
2019-02-16T10:06:00.193Z,42.11
2019-02-16T10:08:46.025Z,41.91
2019-02-16T10:11:34.466Z,47.57
2019-02-16T10:14:20.441Z,45.96
2019-02-16T10:17:01.982Z,43.50
2019-02-16T10:19:49.124Z,40.73
2019-02-16T10:22:37.207Z,41.04
2019-02-16T10:25:24.545Z,52.13
2019-02-16T10:28:10.665Z,45.33
2019-02-16T10:31:00.907Z,50.04
2019-02-16T10:33:46.968Z,38.83
2019-02-16T10:36:52.480Z,44.93
2019-02-16T10:39:42.637Z,52.90
2019-02-16T10:42:30.295Z,52.80
2019-02-16T10:45:04.565Z,39.14
2019-02-16T10:47:54.877Z,36.28
2019-02-16T10:50:38.610Z,37.13
2019-02-16T10:53:26.091Z,37.53
2019-02-16T10:56:01.715Z,43.22
2019-02-16T10:58:42.147Z,43.52
2019-02-16T11:01:34.291Z,50.95
2019-02-16T11:04:16.494Z,37.58
2019-02-16T11:07:06.836Z,46.98
2019-02-16T11:09:42.286Z,35.03
2019-02-16T11:12:31.793Z,41.12
2019-02-16T11:15:24.934Z,35.45
2019-02-16T11:18:10.746Z,35.14
2019-02-16T11:20:56.620Z,42.48
2019-02-16T11:23:52.238Z,44.29
2019-02-16T11:26:28.718Z,41.27
2019-02-16T11:29:11.269Z,39.66
2019-02-16T11:32:01.698Z,50.12
2019-02-16T11:34:46.205Z,37.36
2019-02-16T11:37:19.202Z,33.74
2019-02-16T11:39:57.284Z,43.81
2019-02-16T11:42:47.577Z,40.99
2019-02-16T11:45:28.779Z,47.27
2019-02-16T11:48:09.213Z,36.56
2019-02-16T11:50:51.460Z,33.72
2019-02-16T11:53:41.561Z,33.07
2019-02-16T11:56:30.741Z,33.55
2019-02-16T11:59:17.868Z,49.18
2019-02-16T12:02:08.066Z,33.19
2019-02-16T12:04:58.403Z,40.85
2019-02-16T12:07:42.647Z,32.68
2019-02-16T12:10:35.818Z,31.45
2019-02-16T12:13:26.571Z,49.67
2019-02-16T12:16:26.079Z,31.11
2019-02-16T12:19:32.038Z,33.63
2019-02-16T12:22:25.948Z,31.44
2019-02-16T12:25:12.070Z,40.75
2019-02-16T12:28:01.261Z,31.85
2019-02-16T12:30:51.600Z,42.56
2019-02-16T12:33:38.287Z,36.74
2019-02-16T12:36:24.490Z,32.69
2019-02-16T12:39:11.744Z,48.14
2019-02-16T12:41:50.452Z,30.24
2019-02-16T12:44:55.918Z,34.33
2019-02-16T12:47:46.263Z,53.42
2019-02-16T12:50:33.426Z,35.78
2019-02-16T12:53:20.694Z,51.94
2019-02-16T12:56:06.606Z,30.39
2019-02-16T12:58:49.122Z,51.22
2019-02-16T13:01:36.417Z,31.39
2019-02-16T13:04:23.663Z,47.21
2019-02-16T13:07:11.189Z,50.51
2019-02-16T13:09:58.613Z,50.71
2019-02-16T13:12:39.213Z,46.92
2019-02-16T13:15:32.915Z,46.84
2019-02-16T13:18:28.308Z,31.33
2019-02-16T13:21:18.548Z,49.72
2019-02-16T13:24:00.105Z,45.55
2019-02-16T13:26:43.817Z,46.49
2019-02-16T13:29:37.370Z,43.23
2019-02-16T13:32:23.279Z,43.54
2019-02-16T13:35:09.282Z,44.77
2019-02-16T13:37:48.450Z,46.13
2019-02-16T13:40:44.670Z,45.19
2019-02-16T13:43:41.336Z,46.50
2019-02-16T13:46:27.198Z,31.76
2019-02-16T13:49:17.386Z,43.88
2019-02-16T13:52:10.666Z,40.22
2019-02-16T13:54:53.049Z,43.92
2019-02-16T13:57:38.761Z,47.87
2019-02-16T14:00:27.952Z,45.71
2019-02-16T14:03:17.993Z,34.10
2019-02-16T14:06:14.911Z,32.12
2019-02-16T14:09:17.202Z,48.03
2019-02-16T14:12:13.697Z,34.49
2019-02-16T14:14:48.823Z,46.72
2019-02-16T14:17:34.839Z,49.08
2019-02-16T14:20:03.255Z,48.71
2019-02-16T14:22:31.770Z,48.84
2019-02-16T14:25:02.178Z,39.82
2019-02-16T14:27:30.518Z,37.06
2019-02-16T14:29:58.869Z,41.88
2019-02-16T14:32:27.589Z,50.97
2019-02-16T14:34:56.346Z,51.65
2019-02-16T14:37:55.776Z,42.32
2019-02-16T14:40:27.704Z,39.85
2019-02-16T14:42:56.254Z,37.72
2019-02-16T14:45:24.499Z,40.88
2019-02-16T14:47:57.576Z,53.03
2019-02-16T14:50:25.868Z,34.42
2019-02-16T14:52:54.378Z,51.07
2019-02-16T14:55:22.771Z,34.43
2019-02-16T14:57:51.170Z,50.44
2019-02-16T15:00:20.361Z,53.19
2019-02-16T15:02:49.023Z,52.27
2019-02-16T15:05:17.459Z,48.16
2019-02-16T15:07:45.875Z,54.41
2019-02-16T15:10:14.206Z,53.27
2019-02-16T15:12:42.856Z,54.68
2019-02-16T15:15:11.116Z,39.77
2019-02-16T15:17:39.453Z,54.42
2019-02-16T15:20:09.264Z,55.74
2019-02-16T15:22:37.483Z,57.37
2019-02-16T15:25:06.327Z,51.85
2019-02-16T15:27:34.515Z,53.10
2019-02-16T15:30:03.029Z,53.10
2019-02-16T15:32:31.318Z,40.03
2019-02-16T15:34:59.483Z,54.48
2019-02-16T15:37:27.778Z,55.45
2019-02-16T15:39:55.992Z,56.59
2019-02-16T15:42:24.389Z,57.26
2019-02-16T15:44:52.657Z,54.11
2019-02-16T15:47:20.878Z,53.37
2019-02-16T15:49:49.074Z,52.12
2019-02-16T15:52:17.476Z,57.77
2019-02-16T15:54:46.099Z,47.74
2019-02-16T15:57:14.402Z,57.03
2019-02-16T15:59:42.633Z,56.49
2019-02-16T16:02:10.874Z,58.36
2019-02-16T16:04:39.230Z,58.09
2019-02-16T16:07:12.581Z,58.75
2019-02-16T16:10:08.962Z,58.64
2019-02-16T16:12:56.843Z,45.77
2019-02-16T16:15:44.799Z,52.86
2019-02-16T16:18:23.048Z,60.92
2019-02-16T16:21:09.036Z,59.73
2019-02-16T16:23:56.287Z,60.75
2019-02-16T16:26:49.415Z,61.37
2019-02-16T16:29:54.794Z,56.22
2019-02-16T16:32:32.691Z,60.67
2019-02-16T16:35:13.128Z,60.68
2019-02-16T16:38:02.569Z,60.91
2019-02-16T16:40:52.148Z,51.00
2019-02-16T16:43:31.971Z,52.92
2019-02-16T16:46:21.237Z,62.86
2019-02-16T16:49:20.618Z,63.30
2019-02-16T16:52:14.202Z,62.72
2019-02-16T16:54:58.951Z,63.80
2019-02-16T16:57:44.740Z,62.97
2019-02-16T17:00:34.934Z,62.76
2019-02-16T17:03:21.280Z,62.84
2019-02-16T17:06:09.055Z,62.93
2019-02-16T17:08:59.491Z,62.52
2019-02-16T17:11:46.712Z,61.84
2019-02-16T17:14:22.740Z,60.65
2019-02-16T17:17:13.152Z,62.24
2019-02-16T17:20:15.834Z,61.02
2019-02-16T17:23:06.164Z,60.59
2019-02-16T17:25:52.138Z,60.90
2019-02-16T17:28:39.994Z,61.48
2019-02-16T17:31:26.449Z,61.05
2019-02-16T17:34:12.438Z,61.57
2019-02-16T17:36:49.516Z,62.84
2019-02-16T17:39:31.471Z,62.53
2019-02-16T17:42:20.705Z,62.17
2019-02-16T17:45:06.596Z,62.78
2019-02-16T17:48:11.729Z,62.08
2019-02-16T17:50:49.179Z,61.95
2019-02-16T17:53:44.893Z,59.20
2019-02-16T17:56:18.687Z,62.03
2019-02-16T17:59:06.002Z,61.93
2019-02-16T18:01:51.884Z,62.39
2019-02-16T18:04:39.172Z,61.96
2019-02-16T18:07:26.340Z,61.72
2019-02-16T18:10:26.154Z,61.77
2019-02-16T18:13:13.490Z,61.52
2019-02-16T18:15:59.454Z,61.89
2019-02-16T18:18:46.662Z,61.85
2019-02-16T18:21:46.507Z,61.85
2019-02-16T18:24:25.111Z,61.87
2019-02-16T18:27:02.943Z,62.47
2019-02-16T18:29:51.889Z,62.31
2019-02-16T18:32:42.173Z,62.09
2019-02-16T18:35:28.663Z,62.48
2019-02-16T18:38:19.080Z,62.72
2019-02-16T18:41:05.182Z,62.95
2019-02-16T18:43:54.400Z,62.75
2019-02-16T18:46:41.520Z,62.71
2019-02-16T18:49:29.114Z,62.62
2019-02-16T18:52:23.092Z,62.63
2019-02-16T18:55:16.006Z,62.52
2019-02-16T18:58:06.439Z,63.50
2019-02-16T19:00:50.803Z,62.90
2019-02-16T19:03:37.971Z,62.54
2019-02-16T19:06:25.377Z,62.59
2019-02-16T19:09:15.606Z,62.87
2019-02-16T19:12:02.204Z,62.98
2019-02-16T19:14:55.721Z,64.11
2019-02-16T19:17:48.740Z,64.64
2019-02-16T19:20:42.751Z,62.97
2019-02-16T19:23:38.979Z,63.02
2019-02-16T19:26:26.235Z,63.53
2019-02-16T19:29:05.241Z,63.63
2019-02-16T19:31:42.923Z,63.31
2019-02-16T19:34:28.814Z,63.27
2019-02-16T19:37:19.058Z,64.99
2019-02-16T19:40:09.527Z,63.12
2019-02-16T19:42:47.190Z,63.33
2019-02-16T19:45:32.065Z,63.03
2019-02-16T19:48:20.083Z,63.48
2019-02-16T19:51:08.650Z,63.85
2019-02-16T19:54:03.712Z,63.96
2019-02-16T19:56:51.748Z,63.33
2019-02-16T19:59:39.702Z,62.87
2019-02-16T20:02:25.513Z,62.99
2019-02-16T20:05:16.252Z,63.04
2019-02-16T20:08:07.593Z,63.04
2019-02-16T20:10:48.303Z,63.20
2019-02-16T20:13:34.922Z,63.51
2019-02-16T20:16:12.896Z,65.22
2019-02-16T20:18:59.658Z,63.46
2019-02-16T20:21:45.901Z,63.56
2019-02-16T20:24:33.894Z,64.94
2019-02-16T20:27:15.915Z,65.09
2019-02-16T20:30:11.372Z,64.12
2019-02-16T20:32:59.141Z,67.31
2019-02-16T20:35:46.005Z,67.06
2019-02-16T20:38:23.833Z,64.73
2019-02-16T20:41:26.251Z,64.07
2019-02-16T20:44:13.764Z,63.87
2019-02-16T20:47:02.681Z,63.82
2019-02-16T20:49:49.867Z,63.87
2019-02-16T20:52:25.390Z,63.73
2019-02-16T20:55:18.657Z,63.49
2019-02-16T20:57:57.583Z,63.45
2019-02-16T21:00:43.836Z,63.64
2019-02-16T21:03:22.007Z,63.47
2019-02-16T21:06:12.666Z,63.53
2019-02-16T21:09:00.399Z,63.76
2019-02-16T21:11:47.703Z,63.77
2019-02-16T21:14:41.353Z,63.65
2019-02-16T21:17:28.693Z,63.43
2019-02-16T21:20:18.981Z,63.80
2019-02-16T21:23:05.230Z,68.40
2019-02-16T21:25:46.683Z,64.47
2019-02-16T21:28:24.291Z,69.63
2019-02-16T21:31:11.179Z,66.78
2019-02-16T21:33:58.392Z,65.04
2019-02-16T21:36:41.150Z,66.18
2019-02-16T21:39:28.376Z,64.36
2019-02-16T21:42:15.514Z,64.03
2019-02-16T21:45:02.761Z,64.80
2019-02-16T21:47:39.869Z,63.64
2019-02-16T21:50:29.569Z,63.49
2019-02-16T21:53:28.992Z,63.48
2019-02-16T21:56:14.988Z,63.99
2019-02-16T21:59:02.162Z,63.94
2019-02-16T22:01:49.420Z,63.74
2019-02-16T22:04:35.461Z,63.94
2019-02-16T22:07:32.436Z,64.24
2019-02-16T22:10:07.503Z,63.86
2019-02-16T22:13:00.945Z,71.87
2019-02-16T22:15:29.188Z,68.58
2019-02-16T22:18:00.448Z,66.02
2019-02-16T22:20:28.593Z,64.70
2019-02-16T22:22:57.007Z,64.08
2019-02-16T22:25:25.357Z,64.24
2019-02-16T22:27:53.645Z,63.87
2019-02-16T22:30:21.881Z,65.39
2019-02-16T22:32:50.227Z,63.80
2019-02-16T22:35:18.492Z,63.42
2019-02-16T22:37:46.863Z,63.81
2019-02-16T22:40:15.298Z,63.36
2019-02-16T22:42:43.526Z,63.21
2019-02-16T22:45:11.733Z,63.34
2019-02-16T22:47:40.202Z,63.38
2019-02-16T22:50:10.111Z,63.95
2019-02-16T22:52:38.346Z,64.29
2019-02-16T22:55:06.766Z,65.08
2019-02-16T22:57:35.124Z,69.64
2019-02-16T23:00:03.538Z,73.45
2019-02-16T23:02:31.681Z,73.14
2019-02-16T23:04:59.915Z,66.79
2019-02-16T23:07:28.214Z,67.46
2019-02-16T23:09:56.427Z,74.77
2019-02-16T23:12:24.815Z,69.86
2019-02-16T23:14:52.973Z,73.21
2019-02-16T23:17:21.280Z,65.44
2019-02-16T23:19:49.471Z,67.28
2019-02-16T23:22:17.807Z,68.40
2019-02-16T23:24:46.458Z,68.29
2019-02-16T23:27:14.576Z,73.42
2019-02-16T23:29:42.856Z,66.49
2019-02-16T23:32:17.437Z,64.68
2019-02-16T23:34:45.646Z,64.76
2019-02-16T23:37:13.884Z,64.32
2019-02-16T23:39:42.100Z,71.53
2019-02-16T23:42:10.545Z,74.69
2019-02-16T23:44:38.877Z,77.46
2019-02-16T23:47:07.120Z,72.90
2019-02-16T23:49:35.391Z,67.16
2019-02-16T23:52:10.816Z,77.17
2019-02-16T23:54:39.366Z,76.20
2019-02-16T23:57:07.598Z,67.59
2019-02-16T23:59:36.054Z,66.69
